Time;durP1;ratioP1;P1;durP2;ratioP2;P2;SDS_P1;SDS_P2;PMS_P1;PMS_P2;Temp;Humidity;BMP_temperature;BMP_pressure;BME280_temperature;BME280_humidity;BME280_pressure;Samples;Min_cycle;Max_cycle;Signal;HPM_P1;HPM_P2
2021/05/23 00:02:12;;;;;;;0.90;0.60;;;14.90;93.20;;;;;;5034136;28;20458;-81
2021/05/23 00:04:40;;;;;;;1.57;0.60;;;14.80;92.80;;;;;;5030568;28;20506;-79
2021/05/23 00:07:09;;;;;;;0.93;0.50;;;14.80;93.60;;;;;;5032551;28;20484;-79
2021/05/23 00:09:37;;;;;;;0.60;0.60;;;14.80;99.90;;;;;;5028869;28;20509;-82
2021/05/23 00:12:07;;;;;;;0.67;0.60;;;14.80;94.00;;;;;;5024610;28;20455;-81
2021/05/23 00:14:35;;;;;;;0.60;0.60;;;14.80;94.90;;;;;;5027993;28;20454;-81
2021/05/23 00:17:03;;;;;;;1.67;0.70;;;14.80;96.20;;;;;;5021057;28;20465;-81
2021/05/23 00:19:31;;;;;;;0.83;0.73;;;14.80;96.00;;;;;;5014727;28;20473;-82
2021/05/23 00:21:59;;;;;;;1.70;0.50;;;14.60;96.30;;;;;;5027553;28;20471;-80
2021/05/23 00:24:27;;;;;;;0.80;0.53;;;14.70;98.30;;;;;;5022534;28;20458;-81
2021/05/23 00:26:55;;;;;;;0.53;0.53;;;14.60;98.60;;;;;;5033132;28;20469;-81
2021/05/23 00:29:22;;;;;;;0.63;0.50;;;14.70;99.90;;;;;;5026378;28;20457;-82
2021/05/23 00:31:50;;;;;;;0.53;0.53;;;14.70;98.90;;;;;;5033271;28;20460;-79
2021/05/23 00:34:18;;;;;;;0.80;0.50;;;14.70;99.40;;;;;;5030361;28;20986;-80
2021/05/23 00:36:46;;;;;;;0.60;0.60;;;14.60;99.90;;;;;;5032593;28;20956;-81
2021/05/23 00:39:14;;;;;;;1.67;0.70;;;14.60;99.90;;;;;;5032161;28;20535;-82
2021/05/23 00:41:41;;;;;;;0.90;0.50;;;14.40;99.90;;;;;;5031910;28;20451;-79
2021/05/23 00:44:09;;;;;;;0.60;0.60;;;14.40;99.90;;;;;;5031537;28;20886;-82
2021/05/23 00:46:37;;;;;;;2.47;1.03;;;14.30;99.90;;;;;;5043824;28;20512;-82
2021/05/23 00:49:04;;;;;;;0.60;0.50;;;14.30;99.90;;;;;;5017518;28;20463;-81
2021/05/23 00:51:33;;;;;;;0.60;0.50;;;14.30;99.90;;;;;;5043254;28;20455;-81
2021/05/23 00:54:00;;;;;;;0.57;0.57;;;14.20;99.90;;;;;;5031940;28;20534;-81
2021/05/23 00:56:28;;;;;;;0.60;0.50;;;14.20;99.90;;;;;;5019896;28;20453;-81
2021/05/23 00:58:56;;;;;;;1.73;0.73;;;14.10;99.90;;;;;;5032255;28;20476;-82
2021/05/23 01:01:56;;;;;;;1.30;0.60;;;14.00;99.90;;;;;;5031588;28;20457;-80
2021/05/23 01:04:24;;;;;;;0.60;0.50;;;13.90;99.90;;;;;;4971329;28;20447;-81
2021/05/23 01:06:53;;;;;;;0.60;0.60;;;13.90;99.90;;;;;;5025650;28;21121;-80
2021/05/23 01:09:22;;;;;;;0.60;0.60;;;14.00;99.90;;;;;;5019290;28;20457;-80
2021/05/23 01:12:23;;;;;;;0.60;0.60;;;14.00;99.90;;;;;;5023140;28;20450;-82
2021/05/23 01:14:55;;;;;;;0.50;0.50;;;14.00;99.90;;;;;;5020576;28;20455;-80
2021/05/23 01:17:38;;;;;;;2.53;0.60;;;13.90;99.90;;;;;;5045894;28;20490;-81
2021/05/23 01:20:26;;;;;;;3.93;0.57;;;13.80;99.90;;;;;;5031550;28;21348;-80
2021/05/23 01:23:07;;;;;;;1.87;0.53;;;13.50;99.90;;;;;;5019628;28;20531;-78
2021/05/23 01:25:39;;;;;;;1.70;0.50;;;13.70;99.90;;;;;;5030621;28;20444;-77
2021/05/23 01:28:07;;;;;;;0.70;0.70;;;13.80;99.90;;;;;;5031648;28;20442;-81
2021/05/23 01:30:41;;;;;;;1.10;0.70;;;13.80;99.90;;;;;;5013820;28;20477;-80
2021/05/23 01:33:11;;;;;;;0.50;0.50;;;13.90;99.90;;;;;;5030634;28;20475;-81
2021/05/23 01:35:40;;;;;;;1.50;0.70;;;13.90;99.90;;;;;;5032447;28;20441;-80
2021/05/23 01:38:11;;;;;;;0.77;0.50;;;14.00;99.90;;;;;;5030704;28;20480;-82
2021/05/23 01:40:40;;;;;;;1.37;0.70;;;14.10;99.90;;;;;;5029217;28;20458;-82
2021/05/23 01:43:09;;;;;;;0.97;0.57;;;14.10;99.90;;;;;;5045101;28;20869;-79
2021/05/23 01:45:38;;;;;;;0.60;0.57;;;14.10;99.90;;;;;;5025484;28;20517;-82
2021/05/23 01:48:08;;;;;;;0.70;0.50;;;14.00;99.90;;;;;;5027234;28;21004;-79
2021/05/23 01:50:35;;;;;;;1.43;0.60;;;13.80;99.90;;;;;;5032034;28;20455;-80
2021/05/23 01:53:05;;;;;;;0.60;0.57;;;13.70;99.90;;;;;;5022021;28;20534;-83
2021/05/23 01:55:34;;;;;;;1.53;0.57;;;13.90;99.90;;;;;;5032882;28;20516;-80
2021/05/23 01:58:04;;;;;;;0.60;0.60;;;13.90;99.90;;;;;;5031579;28;20530;-80
2021/05/23 02:00:33;;;;;;;0.63;0.63;;;13.90;99.90;;;;;;5031224;28;20450;-81
2021/05/23 02:03:04;;;;;;;0.60;0.60;;;13.90;99.90;;;;;;5030421;28;20481;-81
2021/05/23 02:05:33;;;;;;;0.63;0.50;;;13.90;99.90;;;;;;5032190;28;20452;-81
2021/05/23 02:08:01;;;;;;;1.50;0.80;;;13.90;99.90;;;;;;5030367;28;20460;-82
2021/05/23 02:10:29;;;;;;;1.00;0.60;;;13.80;99.90;;;;;;5030030;28;20520;-81
2021/05/23 02:13:00;;;;;;;4.47;0.70;;;13.80;99.90;;;;;;5032413;28;20479;-83
2021/05/23 02:15:29;;;;;;;0.70;0.60;;;13.80;99.90;;;;;;5023865;28;20475;-83
2021/05/23 02:17:57;;;;;;;1.13;0.60;;;13.80;99.90;;;;;;5022923;28;20510;-79
2021/05/23 02:20:28;;;;;;;0.80;0.73;;;13.80;99.90;;;;;;5015133;28;20578;-80
2021/05/23 02:22:58;;;;;;;0.50;0.50;;;14.00;99.90;;;;;;5059246;28;20525;-82
2021/05/23 02:25:27;;;;;;;0.40;0.40;;;14.00;99.90;;;;;;5025686;28;20492;-81
2021/05/23 02:27:57;;;;;;;0.60;0.60;;;13.90;99.90;;;;;;5029201;28;20461;-82
2021/05/23 02:30:28;;;;;;;0.40;0.40;;;13.80;99.90;;;;;;5032080;28;20960;-81
2021/05/23 02:32:57;;;;;;;1.33;0.57;;;13.90;99.90;;;;;;5030709;28;20471;-82
2021/05/23 02:35:26;;;;;;;0.47;0.40;;;13.90;99.90;;;;;;5030248;28;20454;-82
2021/05/23 02:37:54;;;;;;;0.47;0.47;;;13.80;99.90;;;;;;5031445;28;20469;-78
2021/05/23 02:40:27;;;;;;;0.40;0.40;;;13.70;99.90;;;;;;5027715;28;20459;-80
2021/05/23 02:42:56;;;;;;;2.07;0.40;;;13.70;99.90;;;;;;5031048;28;20478;-80
2021/05/23 02:45:25;;;;;;;0.40;0.40;;;13.60;99.90;;;;;;5039420;28;20542;-79
2021/05/23 02:47:54;;;;;;;0.40;0.40;;;13.70;99.90;;;;;;5031615;28;20807;-80
2021/05/23 02:50:25;;;;;;;0.50;0.40;;;13.70;99.90;;;;;;5030613;28;20461;-81
2021/05/23 02:52:53;;;;;;;0.77;0.40;;;13.70;99.90;;;;;;5023829;28;20993;-81
2021/05/23 02:55:21;;;;;;;0.40;0.40;;;13.70;99.90;;;;;;5030440;28;21025;-81
2021/05/23 02:57:49;;;;;;;1.27;0.40;;;13.70;99.90;;;;;;5031298;28;20464;-84
2021/05/23 03:00:19;;;;;;;1.30;0.47;;;13.70;99.90;;;;;;5028597;28;20474;-81
2021/05/23 03:02:48;;;;;;;0.40;0.40;;;13.70;99.90;;;;;;5029567;28;20568;-81
2021/05/23 03:05:18;;;;;;;0.60;0.37;;;13.70;99.90;;;;;;5020739;28;20521;-78
2021/05/23 03:07:47;;;;;;;0.40;0.40;;;13.60;99.90;;;;;;5030350;28;20451;-80
2021/05/23 03:10:17;;;;;;;0.83;0.40;;;13.50;99.90;;;;;;5030469;28;20826;-81
2021/05/23 03:12:46;;;;;;;0.70;0.40;;;13.50;99.90;;;;;;5030927;28;20486;-80
2021/05/23 03:15:17;;;;;;;0.40;0.40;;;13.40;99.90;;;;;;5023473;28;20978;-78
2021/05/23 03:17:46;;;;;;;0.40;0.40;;;13.30;99.90;;;;;;5031620;28;20447;-81
2021/05/23 03:20:16;;;;;;;0.40;0.40;;;13.20;99.90;;;;;;5063282;28;20830;-80
2021/05/23 03:22:46;;;;;;;0.40;0.40;;;12.90;99.90;;;;;;5031284;28;20564;-80
2021/05/23 03:25:15;;;;;;;0.80;0.60;;;12.80;99.90;;;;;;5031944;28;20454;-80
2021/05/23 03:27:42;;;;;;;0.40;0.40;;;12.80;99.90;;;;;;5026894;28;21105;-83
2021/05/23 03:30:13;;;;;;;0.40;0.40;;;12.90;99.90;;;;;;5010727;28;20882;-80
2021/05/23 03:32:40;;;;;;;0.40;0.40;;;12.90;99.90;;;;;;5029838;28;20471;-78
2021/05/23 03:35:09;;;;;;;0.50;0.50;;;12.90;99.90;;;;;;5029759;28;20462;-81
2021/05/23 03:37:37;;;;;;;1.00;0.40;;;12.80;99.90;;;;;;5030066;28;20494;-79
2021/05/23 03:40:09;;;;;;;0.40;0.40;;;12.70;99.90;;;;;;5026329;28;20691;-81
2021/05/23 03:42:37;;;;;;;0.50;0.40;;;12.70;99.90;;;;;;5030552;28;20564;-77
2021/05/23 03:45:07;;;;;;;0.40;0.40;;;12.60;99.90;;;;;;5029582;28;20457;-78
2021/05/23 03:47:36;;;;;;;0.50;0.40;;;12.60;99.90;;;;;;5029779;28;20449;-79
2021/05/23 03:50:05;;;;;;;0.40;0.40;;;12.40;99.90;;;;;;5032797;28;20485;-82
2021/05/23 03:52:33;;;;;;;0.60;0.50;;;12.20;1.00;;;;;;5034629;28;20475;-81
2021/05/23 03:55:01;;;;;;;0.70;0.40;;;12.20;1.00;;;;;;5033636;28;20485;-80
2021/05/23 03:57:29;;;;;;;0.40;0.40;;;12.20;1.00;;;;;;5035043;28;20458;-81
2021/05/23 03:59:57;;;;;;;0.40;0.40;;;12.50;1.00;;;;;;5034471;28;20468;-79
2021/05/23 04:02:25;;;;;;;0.80;0.50;;;12.40;1.00;;;;;;5034610;28;20510;-81
2021/05/23 04:04:56;;;;;;;0.50;0.50;;;12.20;1.00;;;;;;5035072;28;20488;-82
2021/05/23 04:07:26;;;;;;;0.40;0.40;;;12.10;1.00;;;;;;5023327;28;20486;-82
2021/05/23 04:09:56;;;;;;;0.60;0.50;;;12.10;1.00;;;;;;5022318;28;20533;-79
2021/05/23 04:12:27;;;;;;;1.00;0.43;;;12.00;1.00;;;;;;5034167;28;20451;-80
2021/05/23 04:14:56;;;;;;;1.10;0.60;;;12.10;1.00;;;;;;5059957;28;21114;-82
2021/05/23 04:17:25;;;;;;;0.63;0.50;;;12.10;1.00;;;;;;5032179;28;20465;-79
2021/05/23 04:19:54;;;;;;;0.50;0.50;;;12.10;1.00;;;;;;5024091;28;20883;-78
2021/05/23 04:22:22;;;;;;;1.07;0.47;;;11.90;38.60;;;;;;5027557;28;20488;-81
2021/05/23 04:24:49;;;;;;;0.40;0.40;;;11.90;1.00;;;;;;5021215;28;20470;-79
2021/05/23 04:27:17;;;;;;;0.53;0.50;;;11.90;1.00;;;;;;5030432;28;20471;-81
2021/05/23 04:29:45;;;;;;;0.60;0.60;;;12.00;37.40;;;;;;5028332;28;20466;-79
2021/05/23 04:32:13;;;;;;;0.75;0.50;;;12.10;18.30;;;;;;5026758;28;20915;-81
2021/05/23 04:34:41;;;;;;;0.97;0.40;;;11.90;66.10;;;;;;5026229;28;20651;-83
2021/05/23 04:37:09;;;;;;;0.60;0.57;;;12.00;15.60;;;;;;5027709;28;20465;-81
2021/05/23 04:39:37;;;;;;;0.40;0.40;;;11.90;99.90;;;;;;5031513;28;20484;-81
2021/05/23 04:42:05;;;;;;;1.07;0.50;;;11.90;99.90;;;;;;5025825;28;20459;-83
2021/05/23 04:44:52;;;;;;;0.60;0.60;;;11.90;99.90;;;;;;5027994;28;20487;-80
2021/05/23 04:47:21;;;;;;;0.70;0.57;;;12.00;99.90;;;;;;5025635;28;20974;-78
2021/05/23 04:49:48;;;;;;;0.43;0.43;;;12.00;67.20;;;;;;5029203;28;20778;-79
2021/05/23 04:52:16;;;;;;;2.23;0.50;;;12.00;9.80;;;;;;5027758;28;20458;-80
2021/05/23 04:54:44;;;;;;;1.33;0.60;;;11.90;36.30;;;;;;5028403;28;20504;-77
2021/05/23 04:57:12;;;;;;;1.80;0.70;;;11.90;52.60;;;;;;5030864;28;20477;-80
2021/05/23 04:59:39;;;;;;;1.80;0.57;;;11.80;99.90;;;;;;5029559;28;20486;-80
2021/05/23 05:02:07;;;;;;;0.40;0.40;;;11.90;99.90;;;;;;5060878;28;21013;-80
2021/05/23 05:04:35;;;;;;;1.13;0.90;;;11.90;99.90;;;;;;5032120;28;20476;-79
2021/05/23 05:07:03;;;;;;;1.50;0.60;;;11.90;99.90;;;;;;5030738;28;20459;-80
2021/05/23 05:09:31;;;;;;;2.80;0.50;;;12.00;99.90;;;;;;5023888;28;20514;-81
2021/05/23 05:11:59;;;;;;;0.60;0.50;;;12.20;99.90;;;;;;5032089;28;20460;-79
2021/05/23 05:14:26;;;;;;;0.53;0.50;;;12.40;99.90;;;;;;5030268;28;20453;-81
2021/05/23 05:16:54;;;;;;;0.60;0.60;;;12.50;11.90;;;;;;5032405;28;20467;-79
2021/05/23 05:19:21;;;;;;;0.80;0.70;;;12.50;56.20;;;;;;5014985;28;20526;-81
2021/05/23 05:21:50;;;;;;;1.00;0.50;;;12.60;12.70;;;;;;5030443;28;20459;-81
2021/05/23 05:24:18;;;;;;;0.50;0.50;;;12.70;1.00;;;;;;5029887;28;20512;-82
2021/05/23 05:26:45;;;;;;;0.70;0.67;;;12.60;1.00;;;;;;5032194;28;20448;-82
2021/05/23 05:29:13;;;;;;;0.77;0.50;;;12.60;7.90;;;;;;5029592;28;20870;-81
2021/05/23 05:31:40;;;;;;;2.30;0.63;;;12.60;1.00;;;;;;5032160;28;20454;-81
2021/05/23 05:34:08;;;;;;;0.53;0.53;;;12.60;1.00;;;;;;5030728;28;20499;-80
2021/05/23 05:36:36;;;;;;;1.00;0.50;;;12.60;1.00;;;;;;5030801;28;20446;-82
2021/05/23 05:39:05;;;;;;;0.97;0.60;;;12.50;1.00;;;;;;5028393;28;20996;-80
2021/05/23 05:41:33;;;;;;;0.60;0.60;;;12.60;38.70;;;;;;5032486;28;20456;-80
2021/05/23 05:44:01;;;;;;;0.70;0.50;;;12.50;12.90;;;;;;5030877;28;21005;-81
2021/05/23 05:46:29;;;;;;;1.20;0.60;;;12.50;1.00;;;;;;5031949;28;20455;-81
2021/05/23 05:48:57;;;;;;;0.40;0.40;;;12.50;51.40;;;;;;5030671;28;20513;-81
2021/05/23 05:51:24;;;;;;;0.50;0.40;;;12.30;99.90;;;;;;5046807;28;20457;-82
2021/05/23 05:53:52;;;;;;;0.60;0.60;;;12.20;99.90;;;;;;5029699;28;20518;-81
2021/05/23 05:56:20;;;;;;;0.77;0.70;;;12.30;99.90;;;;;;5030403;28;20502;-81
2021/05/23 05:58:48;;;;;;;0.53;0.40;;;12.40;99.90;;;;;;5029712;28;20447;-81
2021/05/23 06:01:16;;;;;;;0.63;0.63;;;12.50;99.90;;;;;;5026772;28;20478;-80
2021/05/23 06:03:43;;;;;;;0.57;0.57;;;12.70;99.90;;;;;;5030578;28;21047;-81
2021/05/23 06:06:11;;;;;;;0.70;0.60;;;12.70;1.00;;;;;;5031905;28;20459;-81
2021/05/23 06:08:38;;;;;;;1.00;0.60;;;12.70;1.00;;;;;;5028728;28;20456;-80
2021/05/23 06:11:06;;;;;;;1.23;0.73;;;12.60;1.00;;;;;;5031378;28;21079;-82
2021/05/23 06:13:35;;;;;;;0.77;0.50;;;12.50;1.00;;;;;;5031142;28;20529;-80
2021/05/23 06:16:03;;;;;;;1.47;0.50;;;12.50;1.00;;;;;;5027502;28;20473;-81
2021/05/23 06:18:31;;;;;;;2.13;0.63;;;12.60;1.00;;;;;;5025437;28;20480;-81
2021/05/23 06:20:58;;;;;;;0.57;0.50;;;12.60;1.00;;;;;;5029993;28;20468;-81
2021/05/23 06:23:26;;;;;;;0.63;0.60;;;12.60;1.00;;;;;;5026381;28;20546;-80
2021/05/23 06:25:54;;;;;;;1.57;0.60;;;12.50;1.00;;;;;;5030719;28;20485;-78
2021/05/23 06:28:21;;;;;;;0.67;0.60;;;12.30;1.00;;;;;;5029589;28;20462;-81
2021/05/23 06:30:50;;;;;;;0.53;0.50;;;12.40;1.00;;;;;;5030759;28;20445;-80
2021/05/23 06:33:18;;;;;;;0.53;0.53;;;12.40;1.00;;;;;;5030198;28;20478;-81
2021/05/23 06:35:46;;;;;;;0.57;0.50;;;12.50;1.00;;;;;;5030383;28;20456;-77
2021/05/23 06:38:13;;;;;;;0.40;0.40;;;12.40;1.00;;;;;;5027904;28;20843;-81
2021/05/23 06:40:41;;;;;;;0.43;0.43;;;12.30;1.00;;;;;;5030402;28;20472;-80
2021/05/23 06:43:08;;;;;;;1.03;0.60;;;12.30;1.00;;;;;;5030230;28;20473;-82
2021/05/23 06:45:36;;;;;;;0.47;0.40;;;12.30;1.00;;;;;;5030258;28;20445;-80
2021/05/23 06:48:06;;;;;;;0.83;0.40;;;12.40;1.00;;;;;;5030486;28;20457;-79
2021/05/23 06:50:33;;;;;;;1.27;0.80;;;12.50;1.00;;;;;;5028919;28;20850;-82
2021/05/23 06:53:01;;;;;;;1.17;0.60;;;12.70;1.00;;;;;;5031364;28;20477;-81
2021/05/23 06:55:29;;;;;;;0.50;0.50;;;12.80;1.00;;;;;;5029345;28;20453;-83
2021/05/23 06:57:56;;;;;;;0.90;0.50;;;13.00;1.00;;;;;;5029420;28;20510;-81
2021/05/23 07:00:24;;;;;;;0.50;0.50;;;13.30;1.00;;;;;;5029119;28;20476;-78
2021/05/23 07:02:52;;;;;;;0.80;0.50;;;13.80;1.00;;;;;;5029280;28;20614;-81
2021/05/23 07:05:20;;;;;;;0.50;0.40;;;14.20;99.90;;;;;;5026050;28;20510;-82
2021/05/23 07:07:48;;;;;;;0.70;0.50;;;14.60;99.90;;;;;;5012474;28;20471;-81
2021/05/23 07:10:16;;;;;;;0.50;0.50;;;14.70;99.90;;;;;;5030264;28;20441;-81
2021/05/23 07:12:44;;;;;;;0.50;0.50;;;15.00;99.90;;;;;;5029108;28;20471;-81
2021/05/23 07:15:12;;;;;;;0.60;0.40;;;15.00;99.90;;;;;;5028259;28;20443;-81
2021/05/23 07:17:40;;;;;;;0.60;0.60;;;15.00;99.90;;;;;;5029377;28;20452;-81
2021/05/23 07:20:09;;;;;;;0.50;0.50;;;15.10;99.90;;;;;;5024756;28;20469;-81
2021/05/23 07:22:37;;;;;;;0.67;0.60;;;15.10;99.90;;;;;;5018108;28;20473;-81
2021/05/23 07:25:06;;;;;;;0.50;0.40;;;15.00;99.90;;;;;;5013972;28;20440;-80
2021/05/23 07:27:33;;;;;;;0.50;0.50;;;14.70;99.90;;;;;;5013962;28;20502;-81
2021/05/23 07:30:01;;;;;;;3.43;0.60;;;14.50;99.90;;;;;;5013473;28;20446;-81
2021/05/23 07:32:29;;;;;;;0.63;0.50;;;14.20;99.90;;;;;;5028428;28;20980;-82
2021/05/23 07:34:56;;;;;;;0.80;0.57;;;14.20;99.90;;;;;;5028821;28;20495;-82
2021/05/23 07:37:24;;;;;;;1.00;0.50;;;14.00;99.90;;;;;;5034299;28;20731;-79
2021/05/23 07:39:53;;;;;;;0.70;0.40;;;13.60;99.90;;;;;;5032692;28;20470;-80
2021/05/23 07:42:20;;;;;;;0.93;0.57;;;13.50;99.90;;;;;;5033065;28;20475;-81
2021/05/23 07:44:49;;;;;;;1.97;0.80;;;13.60;99.90;;;;;;5030843;28;20447;-82
2021/05/23 07:47:17;;;;;;;0.60;0.53;;;13.70;99.90;;;;;;5013475;28;20457;-81
2021/05/23 07:49:45;;;;;;;0.93;0.57;;;13.80;99.90;;;;;;5027811;28;20448;-81
2021/05/23 07:52:13;;;;;;;1.13;0.40;;;14.00;99.90;;;;;;5033046;28;20470;-81
2021/05/23 07:54:42;;;;;;;0.60;0.50;;;14.00;99.90;;;;;;5032173;28;20786;-80
2021/05/23 07:57:11;;;;;;;0.60;0.50;;;14.10;99.90;;;;;;5031757;28;21234;-81
2021/05/23 07:59:39;;;;;;;1.35;0.50;;;14.20;99.90;;;;;;5032200;28;20444;-81
2021/05/23 08:02:07;;;;;;;0.50;0.50;;;14.30;99.90;;;;;;5030285;28;20457;-80
2021/05/23 08:04:35;;;;;;;2.00;0.50;;;14.40;99.90;;;;;;5032544;28;20504;-79
2021/05/23 08:07:02;;;;;;;1.27;0.60;;;14.30;99.90;;;;;;5032550;28;20525;-82
2021/05/23 08:09:30;;;;;;;1.43;0.50;;;14.40;99.90;;;;;;5032337;28;20451;-82
2021/05/23 08:11:58;;;;;;;2.60;0.53;;;14.40;99.90;;;;;;5048803;28;20445;-80
2021/05/23 08:14:26;;;;;;;1.00;0.60;;;14.30;99.90;;;;;;5032689;28;20436;-81
2021/05/23 08:16:54;;;;;;;3.10;0.70;;;14.30;99.90;;;;;;5031514;28;20942;-79
2021/05/23 08:19:22;;;;;;;0.47;0.47;;;14.40;99.90;;;;;;5029063;28;20453;-81
2021/05/23 08:21:50;;;;;;;1.13;0.87;;;14.40;99.90;;;;;;5031764;28;20477;-80
2021/05/23 08:24:18;;;;;;;0.60;0.60;;;14.30;99.90;;;;;;5027628;28;20505;-80
2021/05/23 08:26:45;;;;;;;0.50;0.50;;;14.10;99.90;;;;;;5031987;28;20481;-80
2021/05/23 08:29:13;;;;;;;0.90;0.60;;;14.30;99.90;;;;;;5030553;28;20653;-81
2021/05/23 08:31:42;;;;;;;1.83;1.67;;;14.40;99.90;;;;;;5032478;28;20993;-80
2021/05/23 08:34:09;;;;;;;1.20;0.60;;;14.60;99.90;;;;;;5031037;28;20532;-80
2021/05/23 08:36:37;;;;;;;0.70;0.57;;;14.70;99.90;;;;;;5032701;28;20459;-81
2021/05/23 08:39:06;;;;;;;0.97;0.90;;;14.80;99.90;;;;;;5029651;28;20451;-82
2021/05/23 08:41:33;;;;;;;1.70;0.63;;;14.70;99.90;;;;;;5027424;28;20469;-81
2021/05/23 08:44:01;;;;;;;1.10;0.60;;;14.70;99.90;;;;;;5031377;28;20459;-81
2021/05/23 08:46:29;;;;;;;0.60;0.60;;;14.70;99.90;;;;;;5028355;28;20519;-82
2021/05/23 08:48:58;;;;;;;2.20;0.70;;;14.80;99.90;;;;;;5029405;28;20823;-81
2021/05/23 08:51:26;;;;;;;0.77;0.73;;;14.80;99.90;;;;;;5031368;28;20772;-81
2021/05/23 08:53:54;;;;;;;2.30;0.90;;;14.70;99.90;;;;;;5031619;28;20488;-81
2021/05/23 08:56:21;;;;;;;0.60;0.60;;;14.50;99.90;;;;;;5030915;28;20522;-80
2021/05/23 08:58:49;;;;;;;1.00;0.80;;;14.70;99.90;;;;;;5028769;28;20449;-80
2021/05/23 09:01:26;;;;;;;2.13;0.50;;;14.80;99.90;;;;;;5032791;28;20493;-80
2021/05/23 09:03:59;;;;;;;4.03;0.80;;;14.60;99.90;;;;;;5030226;28;20476;-77
2021/05/23 09:06:28;;;;;;;2.43;0.60;;;14.50;99.90;;;;;;5027733;28;20453;-80
2021/05/23 09:09:00;;;;;;;0.83;0.50;;;14.50;99.90;;;;;;5030847;28;20929;-80
2021/05/23 09:11:29;;;;;;;1.27;0.60;;;14.40;99.90;;;;;;5031482;28;20528;-81
2021/05/23 09:13:57;;;;;;;0.60;0.60;;;14.60;99.90;;;;;;5030553;28;20547;-79
2021/05/23 09:16:24;;;;;;;3.57;1.20;;;14.80;99.90;;;;;;5027584;28;20526;-82
2021/05/23 09:18:53;;;;;;;0.60;0.60;;;14.90;99.90;;;;;;5027207;28;20465;-81
2021/05/23 09:21:30;;;;;;;0.57;0.57;;;14.90;99.90;;;;;;5031073;28;20479;-81
2021/05/23 09:24:00;;;;;;;1.20;0.70;;;14.70;99.90;;;;;;5029950;28;20529;-81
2021/05/23 09:26:30;;;;;;;2.13;0.40;;;14.50;99.90;;;;;;5030132;28;20448;-81
2021/05/23 09:29:04;;;;;;;0.50;0.50;;;14.20;99.90;;;;;;5030216;28;20452;-81
2021/05/23 09:31:32;;;;;;;0.50;0.50;;;14.10;99.90;;;;;;5025578;28;20952;-80
2021/05/23 09:34:00;;;;;;;0.50;0.50;;;14.10;99.90;;;;;;5030215;28;20996;-80
2021/05/23 09:36:28;;;;;;;1.17;0.50;;;14.30;99.90;;;;;;5030305;28;20454;-82
2021/05/23 09:38:58;;;;;;;0.70;0.60;;;14.50;99.90;;;;;;5030018;28;20453;-80
2021/05/23 09:41:27;;;;;;;0.40;0.40;;;14.50;99.90;;;;;;5018203;28;20474;-81
2021/05/23 09:44:10;;;;;;;1.20;0.50;;;14.60;99.90;;;;;;5043042;28;20479;-79
2021/05/23 09:46:54;;;;;;;0.50;0.50;;;14.60;99.90;;;;;;5010732;28;20464;-81
2021/05/23 09:49:22;;;;;;;1.23;0.67;;;14.70;99.90;;;;;;5026788;28;20479;-81
2021/05/23 09:51:53;;;;;;;2.37;0.90;;;14.60;99.90;;;;;;5027002;28;20454;-81
2021/05/23 09:54:22;;;;;;;0.50;0.50;;;14.40;99.90;;;;;;5029740;28;20524;-81
2021/05/23 09:56:49;;;;;;;0.70;0.63;;;14.40;99.90;;;;;;5030415;28;20465;-81
2021/05/23 09:59:21;;;;;;;0.60;0.60;;;14.50;99.90;;;;;;5030328;28;20504;-81
2021/05/23 10:01:50;;;;;;;0.60;0.60;;;14.70;99.90;;;;;;5026177;28;20995;-81
2021/05/23 10:04:20;;;;;;;0.67;0.50;;;14.70;99.90;;;;;;5031281;28;20476;-80
2021/05/23 10:06:59;;;;;;;1.00;0.67;;;14.70;99.90;;;;;;5029323;28;21263;-81
2021/05/23 10:09:28;;;;;;;0.60;0.50;;;14.90;99.90;;;;;;5030394;28;20468;-81
2021/05/23 10:11:56;;;;;;;0.60;0.50;;;15.10;99.90;;;;;;5029426;28;20435;-80
2021/05/23 10:14:25;;;;;;;0.60;0.50;;;15.40;99.90;;;;;;5030748;28;20471;-82
2021/05/23 10:16:53;;;;;;;3.07;0.80;;;15.50;99.90;;;;;;5013350;28;20457;-82
2021/05/23 10:19:23;;;;;;;0.70;0.50;;;15.60;99.90;;;;;;5024087;28;20436;-81
2021/05/23 10:21:57;;;;;;;0.60;0.60;;;15.80;99.90;;;;;;5029457;28;20472;-79
2021/05/23 10:24:29;;;;;;;0.40;0.40;;;15.80;99.90;;;;;;5029112;28;20458;-81
2021/05/23 10:27:04;;;;;;;1.90;0.80;;;15.70;99.90;;;;;;5030016;28;20945;-81
2021/05/23 10:29:34;;;;;;;1.00;0.67;;;15.80;99.90;;;;;;5028085;28;20493;-81
2021/05/23 10:32:07;;;;;;;0.70;0.50;;;15.70;99.90;;;;;;5028268;28;20454;-80
2021/05/23 10:34:37;;;;;;;0.50;0.50;;;15.80;99.90;;;;;;5029906;28;20452;-82
2021/05/23 10:37:05;;;;;;;0.47;0.47;;;15.80;99.90;;;;;;5028565;28;20448;-80
2021/05/23 10:39:40;;;;;;;0.70;0.50;;;15.90;99.90;;;;;;5029331;28;20442;-81
2021/05/23 10:42:09;;;;;;;0.50;0.50;;;15.90;99.90;;;;;;5024225;28;20538;-82
2021/05/23 10:44:43;;;;;;;0.70;0.50;;;15.90;99.90;;;;;;5021688;28;20460;-82
2021/05/23 10:47:13;;;;;;;3.03;0.50;;;15.90;99.90;;;;;;5010699;28;20483;-82
2021/05/23 10:49:56;;;;;;;2.80;0.97;;;15.60;99.90;;;;;;5007926;28;20945;-82
2021/05/23 10:52:27;;;;;;;0.83;0.70;;;15.60;99.90;;;;;;5010776;28;20512;-81
2021/05/23 10:55:03;;;;;;;0.70;0.70;;;15.50;99.90;;;;;;5013596;28;20447;-80
2021/05/23 10:57:44;;;;;;;1.40;0.60;;;15.30;99.90;;;;;;5021540;28;20457;-81
2021/05/23 11:00:19;;;;;;;1.23;0.50;;;15.10;99.90;;;;;;5033297;28;20438;-81
2021/05/23 11:02:47;;;;;;;0.70;0.50;;;14.80;99.90;;;;;;5031984;28;20479;-81
2021/05/23 11:05:17;;;;;;;1.00;0.50;;;14.80;99.90;;;;;;5033366;28;20452;-82
2021/05/23 11:07:55;;;;;;;0.87;0.47;;;14.90;99.90;;;;;;5034015;28;20518;-80
2021/05/23 11:10:26;;;;;;;1.07;0.50;;;15.10;99.90;;;;;;5038053;28;20576;-81
2021/05/23 11:12:58;;;;;;;2.70;0.63;;;15.20;99.90;;;;;;5033546;28;20549;-80
2021/05/23 11:15:41;;;;;;;0.50;0.50;;;15.40;99.90;;;;;;5033250;28;20781;-81
2021/05/23 11:18:09;;;;;;;0.73;0.50;;;15.40;99.90;;;;;;5033084;28;20478;-81
2021/05/23 11:20:42;;;;;;;0.50;0.50;;;15.40;99.90;;;;;;5035989;28;20456;-82
2021/05/23 11:23:10;;;;;;;0.60;0.60;;;15.40;99.90;;;;;;5031978;28;20463;-81
2021/05/23 11:25:38;;;;;;;0.40;0.40;;;15.30;99.90;;;;;;5013354;28;20520;-81
2021/05/23 11:28:07;;;;;;;0.90;0.50;;;15.30;99.90;;;;;;5012818;28;20454;-80
2021/05/23 11:30:37;;;;;;;0.67;0.67;;;15.30;99.90;;;;;;5045783;28;20448;-81
2021/05/23 11:33:07;;;;;;;0.40;0.40;;;15.50;99.90;;;;;;5029377;28;20469;-80
2021/05/23 11:35:38;;;;;;;0.80;0.60;;;15.60;99.90;;;;;;5033193;28;20457;-81
2021/05/23 11:38:07;;;;;;;1.40;0.50;;;15.80;99.90;;;;;;5031908;28;20453;-80
2021/05/23 11:40:41;;;;;;;0.77;0.70;;;15.90;99.90;;;;;;5031925;28;20461;-81
2021/05/23 11:43:15;;;;;;;2.50;0.80;;;16.00;99.90;;;;;;5031397;28;20476;-78
2021/05/23 11:45:57;;;;;;;0.80;0.57;;;16.00;99.90;;;;;;5031862;28;20464;-81
2021/05/23 11:48:36;;;;;;;0.70;0.70;;;16.10;99.90;;;;;;5020552;28;20444;-82
2021/05/23 11:51:05;;;;;;;0.90;0.60;;;16.10;99.90;;;;;;5025028;28;20465;-81
2021/05/23 11:53:38;;;;;;;0.53;0.53;;;16.00;99.90;;;;;;5025802;28;20483;-81
2021/05/23 11:56:07;;;;;;;1.00;0.60;;;15.90;99.90;;;;;;5031198;28;20482;-81
2021/05/23 11:58:35;;;;;;;0.60;0.57;;;16.00;99.90;;;;;;5031346;28;20463;-81
2021/05/23 12:01:11;;;;;;;1.37;0.60;;;15.80;99.90;;;;;;5024691;28;20445;-82
2021/05/23 12:03:39;;;;;;;0.60;0.60;;;15.70;99.90;;;;;;5032013;28;20516;-80
2021/05/23 12:06:16;;;;;;;1.03;0.60;;;15.60;99.90;;;;;;5031446;28;21021;-81
2021/05/23 12:08:44;;;;;;;1.63;0.50;;;15.70;99.90;;;;;;5030195;28;20451;-81
2021/05/23 12:11:13;;;;;;;0.70;0.53;;;15.70;99.90;;;;;;5025094;28;20451;-80
2021/05/23 12:13:42;;;;;;;0.80;0.60;;;15.70;99.90;;;;;;5011553;28;20514;-81
2021/05/23 12:16:12;;;;;;;1.00;0.50;;;15.80;99.90;;;;;;5012941;28;20459;-81
2021/05/23 12:18:41;;;;;;;1.47;0.60;;;15.90;99.90;;;;;;5021168;28;20518;-79
2021/05/23 12:21:13;;;;;;;0.80;0.60;;;16.20;99.90;;;;;;5024266;28;20450;-80
2021/05/23 12:23:43;;;;;;;0.90;0.90;;;16.10;99.90;;;;;;5027763;28;20481;-81
2021/05/23 12:26:15;;;;;;;0.50;0.50;;;15.90;99.90;;;;;;5032709;28;20514;-81
2021/05/23 12:28:45;;;;;;;0.50;0.50;;;15.90;99.90;;;;;;5031812;28;21110;-77
2021/05/23 12:31:13;;;;;;;0.50;0.50;;;15.70;99.90;;;;;;5030259;28;20540;-82
2021/05/23 12:33:49;;;;;;;0.60;0.60;;;15.60;99.90;;;;;;5032500;28;20496;-81
2021/05/23 12:36:17;;;;;;;0.80;0.50;;;15.40;99.90;;;;;;5031726;28;20450;-80
2021/05/23 12:38:55;;;;;;;0.50;0.50;;;15.10;99.90;;;;;;5031211;28;20446;-81
2021/05/23 12:41:35;;;;;;;0.43;0.40;;;15.10;99.90;;;;;;5053274;28;20981;-80
2021/05/23 12:44:03;;;;;;;0.80;0.60;;;15.20;99.90;;;;;;5032339;28;20475;-81
2021/05/23 12:46:31;;;;;;;3.90;2.93;;;15.40;99.90;;;;;;5030885;28;20840;-81
2021/05/23 12:48:58;;;;;;;1.27;0.70;;;15.70;99.90;;;;;;5028953;28;20471;-81
2021/05/23 12:51:28;;;;;;;1.63;1.47;;;15.90;99.90;;;;;;5031558;28;20453;-80
2021/05/23 12:53:57;;;;;;;0.50;0.50;;;16.10;99.90;;;;;;5032105;28;21014;-80
2021/05/23 12:56:27;;;;;;;0.60;0.60;;;16.30;99.90;;;;;;5030266;28;20458;-81
2021/05/23 12:59:00;;;;;;;0.80;0.63;;;16.50;99.90;;;;;;5031329;28;20536;-81
2021/05/23 13:01:29;;;;;;;0.70;0.60;;;16.50;99.90;;;;;;5026515;28;20499;-81